Time;durP1;ratioP1;P1;durP2;ratioP2;P2;SDS_P1;SDS_P2;PMS_P1;PMS_P2;Temp;Humidity;BMP_temperature;BMP_pressure;BME280_temperature;BME280_humidity;BME280_pressure;Samples;Min_cycle;Max_cycle;Signal;HPM_P1;HPM_P2
2023/07/16 07:12:40;;;;;;;5.93;2.30;;;;;;;18.49;77.13;96734.00;2089146;28;21060;-62
2023/07/16 07:14:41;;;;;;;5.70;1.63;;;;;;;18.64;77.22;96742.56;2088706;28;20559;-62
2023/07/16 07:16:49;;;;;;;13.15;2.17;;;;;;;18.86;78.38;96739.97;2094499;27;20558;-62
2023/07/16 07:19:02;;;;;;;8.68;2.33;;;;;;;18.71;79.16;96738.50;2084448;28;20548;-62
2023/07/16 07:21:11;;;;;;;15.57;2.38;;;;;;;18.69;76.25;96748.34;2085072;28;20583;-62
2023/07/16 07:22:13;;;;;;;7.28;1.67;;;;;;;18.95;76.86;96749.03;2084318;28;20196;-62
2023/07/16 07:23:15;;;;;;;7.18;1.73;;;;;;;18.80;75.30;96748.34;2084158;28;20265;-62
2023/07/16 07:24:17;;;;;;;7.93;2.40;;;;;;;18.76;75.37;96752.22;2083792;28;20193;-62
2023/07/16 07:25:19;;;;;;;4.75;1.65;;;;;;;18.80;75.81;96751.00;2083816;28;20198;-62
2023/07/16 07:26:20;;;;;;;12.10;2.75;;;;;;;18.69;74.09;96754.47;2079953;28;20224;-63
2023/07/16 07:27:21;;;;;;;9.15;2.88;;;;;;;19.01;73.85;96756.50;2080360;28;20659;-62
2023/07/16 07:28:23;;;;;;;7.57;1.98;;;;;;;18.74;74.37;96754.13;2080468;28;20203;-62
2023/07/16 07:29:24;;;;;;;4.85;1.65;;;;;;;18.57;74.94;96763.34;2078932;28;20201;-62
2023/07/16 07:30:26;;;;;;;7.40;1.50;;;;;;;18.43;75.24;96759.91;2081453;28;20314;-62
2023/07/16 07:31:27;;;;;;;6.75;2.42;;;;;;;18.49;75.29;96763.91;2082011;28;20695;-64
2023/07/16 07:40:57;;;;;;;5.70;1.50;;;;;;;18.55;76.70;96766.09;2084160;28;20848;-62
2023/07/16 07:41:58;;;;;;;10.23;1.88;;;;;;;18.77;76.13;96775.88;2079167;28;20204;-64
2023/07/16 07:43:00;;;;;;;6.22;2.10;;;;;;;19.01;76.05;96775.00;2079292;28;20197;-64
2023/07/16 07:44:01;;;;;;;13.30;2.00;;;;;;;18.81;75.70;96762.44;2082987;28;20193;-64
2023/07/16 07:45:03;;;;;;;6.53;2.13;;;;;;;19.02;74.12;96778.50;2082109;28;20198;-64
2023/07/16 07:46:05;;;;;;;9.07;2.40;;;;;;;19.30;73.50;96776.34;2081238;28;20222;-64
2023/07/16 07:47:08;;;;;;;9.65;2.05;;;;;;;19.19;72.28;96767.44;2082668;28;20705;-64
2023/07/16 07:48:10;;;;;;;13.63;2.15;;;;;;;19.32;71.85;96767.31;2082459;28;20913;-64
2023/07/16 07:49:12;;;;;;;6.85;1.58;;;;;;;19.51;71.05;96769.38;2083962;28;20637;-64
2023/07/16 07:50:13;;;;;;;4.43;1.40;;;;;;;19.56;69.97;96772.50;2082883;28;20249;-63
2023/07/16 07:51:15;;;;;;;5.30;1.90;;;;;;;19.75;70.41;96777.16;2081938;28;20234;-64
2023/07/16 07:52:16;;;;;;;7.53;1.73;;;;;;;19.83;70.19;96781.06;2078815;28;20190;-64
2023/07/16 07:53:18;;;;;;;9.50;2.70;;;;;;;19.97;66.85;96782.59;2079508;28;20198;-64
2023/07/16 07:54:20;;;;;;;6.80;1.73;;;;;;;20.04;67.75;96784.63;2081771;28;20201;-64
2023/07/16 07:55:21;;;;;;;9.13;2.20;;;;;;;20.05;67.55;96775.72;2080970;28;20204;-64
2023/07/16 07:56:23;;;;;;;6.82;2.40;;;;;;;19.77;68.42;96782.38;2081077;28;21002;-64
2023/07/16 07:57:24;;;;;;;7.05;1.60;;;;;;;19.63;68.39;96787.91;2081758;28;20705;-64
2023/07/16 07:58:26;;;;;;;6.57;2.08;;;;;;;19.48;68.39;96784.69;2083142;28;20280;-64
2023/07/16 07:59:27;;;;;;;5.78;1.73;;;;;;;19.46;68.13;96781.31;2082505;28;20292;-64
2023/07/16 08:00:29;;;;;;;6.13;3.95;;;;;;;19.28;69.32;96788.88;2082304;28;20204;-64
2023/07/16 08:01:30;;;;;;;5.78;1.52;;;;;;;19.39;70.38;96780.94;2082838;28;20237;-64
2023/07/16 08:02:32;;;;;;;5.07;1.60;;;;;;;19.30;70.05;96782.50;2082424;28;20201;-64
2023/07/16 08:03:34;;;;;;;7.70;1.50;;;;;;;19.24;70.43;96775.03;2082154;28;20193;-64
2023/07/16 08:04:36;;;;;;;4.50;1.55;;;;;;;19.23;70.42;96776.81;2078730;28;20198;-64
2023/07/16 08:05:38;;;;;;;13.35;2.20;;;;;;;19.37;71.01;96783.69;2079077;28;20204;-64
2023/07/16 08:06:39;;;;;;;9.85;1.90;;;;;;;19.40;71.19;96782.63;2082922;28;20284;-64
2023/07/16 08:07:41;;;;;;;11.80;2.33;;;;;;;19.69;70.54;96772.41;2082162;28;20335;-64
2023/07/16 08:08:42;;;;;;;4.40;1.85;;;;;;;19.69;70.88;96763.59;2080942;28;20553;-64
2023/07/16 08:09:43;;;;;;;7.68;1.80;;;;;;;19.84;71.28;96767.69;2081487;28;20672;-64
2023/07/16 08:10:46;;;;;;;6.93;1.88;;;;;;;20.23;69.00;96759.28;2079763;28;20745;-64
2023/07/16 08:11:47;;;;;;;8.85;1.42;;;;;;;20.52;69.03;96764.81;2080609;28;20225;-63
2023/07/16 08:12:48;;;;;;;11.63;1.48;;;;;;;20.68;68.31;96768.84;2081669;28;20205;-64
2023/07/16 08:13:50;;;;;;;3.72;1.55;;;;;;;20.56;68.70;96770.72;2082144;28;20201;-64
2023/07/16 08:14:51;;;;;;;4.38;1.75;;;;;;;20.64;69.35;96762.94;2082155;28;20193;-64
2023/07/16 08:15:53;;;;;;;5.70;1.52;;;;;;;20.42;69.35;96763.03;2081643;28;20209;-64
2023/07/16 08:16:54;;;;;;;9.25;2.15;;;;;;;20.32;68.43;96771.78;2078763;28;20201;-64
2023/07/16 08:17:59;;;;;;;8.57;2.35;;;;;;;20.28;69.48;96785.41;2081900;28;20229;-64
2023/07/16 08:19:00;;;;;;;6.55;1.88;;;;;;;20.34;69.35;96782.25;2081626;28;20322;-64
2023/07/16 08:20:02;;;;;;;3.50;1.50;;;;;;;20.38;68.82;96773.09;2081899;28;20189;-64
2023/07/16 08:21:04;;;;;;;7.63;1.85;;;;;;;19.94;68.42;96774.91;2084989;28;20692;-64
2023/07/16 08:22:05;;;;;;;5.20;1.63;;;;;;;20.23;69.16;96767.22;2086312;28;20197;-63
2023/07/16 08:23:07;;;;;;;4.38;2.00;;;;;;;20.26;68.23;96752.88;2080325;28;20240;-64
2023/07/16 08:24:08;;;;;;;6.72;2.00;;;;;;;20.51;68.19;96752.53;2081836;28;20202;-63
2023/07/16 08:25:10;;;;;;;7.65;1.40;;;;;;;19.97;69.30;96751.66;2078930;28;20983;-64
2023/07/16 08:28:53;;;;;;;8.63;1.58;;;;;;;19.22;70.61;96747.84;2092065;28;20571;-61
2023/07/16 08:29:54;;;;;;;6.25;1.50;;;;;;;19.32;69.43;96747.97;2085573;28;20244;-61
2023/07/16 08:30:55;;;;;;;5.28;1.60;;;;;;;19.63;69.61;96758.78;2081894;28;20196;-61
2023/07/16 08:31:57;;;;;;;4.70;1.77;;;;;;;19.69;69.72;96760.94;2068533;28;20198;-61
2023/07/16 08:41:48;;;;;;;5.80;1.85;;;;;;;19.29;70.76;96759.66;2101263;27;20547;-61
2023/07/16 08:42:50;;;;;;;5.30;1.70;;;;;;;19.34;70.84;96768.06;2100254;28;20245;-62
2023/07/16 08:45:08;;;;;;;8.02;2.00;;;;;;;19.19;72.04;96780.69;2085155;28;20582;-61
2023/07/16 08:46:10;;;;;;;5.70;1.67;;;;;;;19.24;71.49;96782.97;2077204;28;20214;-61
2023/07/16 08:47:12;;;;;;;5.10;2.20;;;;;;;19.09;71.38;96779.72;2070806;28;20209;-61
2023/07/16 08:48:13;;;;;;;8.43;1.98;;;;;;;19.26;70.95;96773.09;2072069;28;20651;-61
2023/07/16 08:49:17;;;;;;;9.82;2.08;;;;;;;19.38;71.00;96776.63;2074672;28;20210;-61
2023/07/16 08:50:20;;;;;;;6.13;1.65;;;;;;;19.41;68.90;96785.16;2075939;28;20210;-62
2023/07/16 08:51:25;;;;;;;8.25;1.60;;;;;;;19.48;67.96;96784.69;2073328;28;20284;-61
2023/07/16 08:52:27;;;;;;;8.77;2.03;;;;;;;19.53;68.30;96799.25;2073837;28;20289;-61
2023/07/16 08:53:30;;;;;;;6.93;1.83;;;;;;;19.52;69.18;96794.91;2073930;28;20207;-61
2023/07/16 08:54:31;;;;;;;6.93;2.05;;;;;;;19.46;69.28;96794.53;2078572;28;20210;-62
2023/07/16 08:55:34;;;;;;;7.60;2.25;;;;;;;19.53;69.13;96791.28;2078512;28;20202;-62
2023/07/16 08:56:36;;;;;;;12.95;1.95;;;;;;;19.70;68.88;96786.47;2074255;28;20656;-61
2023/07/16 08:57:38;;;;;;;6.72;2.20;;;;;;;20.08;69.35;96790.53;2075613;28;20203;-61
2023/07/16 08:58:42;;;;;;;7.53;1.90;;;;;;;20.21;68.92;96787.72;2074740;28;20247;-61
2023/07/16 08:59:47;;;;;;;8.13;2.00;;;;;;;19.92;68.35;96792.72;2075025;28;20686;-61
2023/07/16 09:00:49;;;;;;;8.23;2.10;;;;;;;20.30;68.34;96784.34;2074068;28;20200;-61
2023/07/16 09:01:51;;;;;;;5.10;1.42;;;;;;;20.28;68.72;96788.03;2073173;28;20208;-61
2023/07/16 09:02:53;;;;;;;6.43;2.05;;;;;;;20.63;67.96;96785.16;2074830;28;20201;-61
2023/07/16 09:03:54;;;;;;;10.48;1.80;;;;;;;20.83;67.91;96785.31;2074603;28;20207;-61
2023/07/16 09:04:56;;;;;;;10.70;2.15;;;;;;;20.91;68.16;96784.66;2070719;28;20218;-62
2023/07/16 09:05:57;;;;;;;9.02;2.33;;;;;;;20.71;67.16;96784.56;2072455;28;20237;-61
2023/07/16 09:06:59;;;;;;;7.63;1.70;;;;;;;20.86;66.80;96788.56;2075594;28;20213;-61
2023/07/16 09:08:00;;;;;;;9.02;1.98;;;;;;;20.64;67.95;96781.50;2070678;28;20205;-61
2023/07/16 09:09:02;;;;;;;12.18;1.95;;;;;;;20.79;67.97;96782.09;2070983;28;20656;-61
2023/07/16 09:10:04;;;;;;;5.57;1.70;;;;;;;20.86;67.82;96785.06;2073458;28;20343;-62
2023/07/16 09:11:05;;;;;;;15.93;2.05;;;;;;;20.79;67.21;96787.38;2072373;28;20253;-61
2023/07/16 09:12:12;;;;;;;9.40;2.00;;;;;;;21.15;66.86;96789.72;2072800;28;20231;-61
2023/07/16 09:13:18;;;;;;;11.63;1.95;;;;;;;21.47;65.45;96778.13;2073550;28;20210;-61
2023/07/16 09:14:21;;;;;;;8.82;1.90;;;;;;;21.73;65.27;96772.38;2070563;28;20198;-62
2023/07/16 09:15:22;;;;;;;6.30;1.88;;;;;;;21.45;64.07;96772.94;2071914;28;20233;-62
2023/07/16 09:16:23;;;;;;;12.27;2.30;;;;;;;21.60;65.00;96778.78;2074359;28;20230;-62
2023/07/16 09:17:25;;;;;;;6.28;2.17;;;;;;;21.38;64.62;96777.09;2073240;28;20202;-61
2023/07/16 09:18:27;;;;;;;8.95;2.00;;;;;;;21.56;64.85;96781.81;2070585;28;20585;-62
2023/07/16 09:19:32;;;;;;;12.30;2.47;;;;;;;20.75;65.23;96778.00;2073848;28;20200;-62
2023/07/16 09:20:34;;;;;;;10.93;2.03;;;;;;;20.47;67.29;96782.94;2074416;28;20194;-62
2023/07/16 09:21:36;;;;;;;6.07;1.80;;;;;;;20.93;67.48;96775.59;2075587;28;20331;-61
2023/07/16 09:22:38;;;;;;;5.82;1.45;;;;;;;21.35;66.70;96777.38;2070654;28;20199;-62
2023/07/16 09:23:41;;;;;;;8.10;2.05;;;;;;;21.52;66.16;96773.25;2070882;28;20688;-62
2023/07/16 09:24:45;;;;;;;7.50;1.88;;;;;;;21.74;65.90;96774.03;2070629;28;20229;-62
2023/07/16 09:25:46;;;;;;;11.82;1.67;;;;;;;21.57;66.24;96779.03;2071922;28;20205;-61
2023/07/16 09:26:53;;;;;;;14.55;1.85;;;;;;;21.75;66.29;96781.91;2074272;28;20195;-61
2023/07/16 09:27:54;;;;;;;12.43;2.88;;;;;;;21.74;66.10;96784.69;2075499;28;20674;-61
2023/07/16 09:28:56;;;;;;;7.45;2.03;;;;;;;21.51;65.38;96784.88;2075375;28;20215;-62
2023/07/16 09:30:01;;;;;;;5.85;1.80;;;;;;;21.31;65.57;96782.09;2073197;28;20194;-61
2023/07/16 09:31:06;;;;;;;5.32;1.55;;;;;;;21.27;66.14;96782.50;2074148;28;20226;-62
2023/07/16 09:32:07;;;;;;;11.32;3.35;;;;;;;21.60;65.29;96776.13;2070515;28;20197;-62
2023/07/16 09:33:11;;;;;;;5.75;2.38;;;;;;;21.89;65.46;96771.84;2070868;28;20245;-63
2023/07/16 09:34:13;;;;;;;5.70;2.22;;;;;;;22.47;63.79;96771.13;2075683;28;20217;-63
2023/07/16 09:35:16;;;;;;;9.02;2.10;;;;;;;22.68;62.19;96771.00;2074012;28;20214;-62
2023/07/16 09:36:25;;;;;;;8.60;2.20;;;;;;;22.97;61.92;96770.13;2074723;28;20348;-63
2023/07/16 09:37:28;;;;;;;9.02;1.67;;;;;;;23.15;61.78;96776.41;2070998;28;20209;-63
2023/07/16 09:38:30;;;;;;;10.40;2.22;;;;;;;23.26;60.32;96786.06;2071844;28;20198;-63
2023/07/16 09:39:33;;;;;;;10.95;1.92;;;;;;;22.91;61.60;96784.81;2074056;28;20285;-63
2023/07/16 09:40:36;;;;;;;12.02;1.73;;;;;;;22.01;62.87;96792.88;2074032;28;20562;-62
2023/07/16 09:41:40;;;;;;;7.35;1.95;;;;;;;21.39;64.35;96778.78;2072068;28;20222;-63
2023/07/16 09:42:43;;;;;;;6.93;2.00;;;;;;;21.46;64.70;96785.25;2073689;28;20194;-62
2023/07/16 09:43:45;;;;;;;8.73;2.47;;;;;;;21.78;64.98;96772.81;2074524;28;20248;-62
2023/07/16 09:44:47;;;;;;;10.90;2.20;;;;;;;21.93;63.73;96774.13;2074687;28;20234;-62
2023/07/16 09:45:48;;;;;;;10.65;2.08;;;;;;;21.74;63.76;96768.72;2069845;28;20212;-62
2023/07/16 09:46:50;;;;;;;10.02;1.75;;;;;;;22.00;64.22;96766.44;2070680;28;20239;-62
2023/07/16 09:47:51;;;;;;;9.70;2.13;;;;;;;22.09;64.43;96764.75;2072834;28;20226;-62
2023/07/16 09:48:53;;;;;;;9.38;1.73;;;;;;;21.86;63.54;96765.00;2072270;28;20198;-62
2023/07/16 09:49:55;;;;;;;6.32;1.90;;;;;;;22.04;63.47;96761.69;2073304;28;20237;-62
2023/07/16 09:50:57;;;;;;;8.02;2.58;;;;;;;22.07;64.05;96775.53;2073802;28;20285;-62
2023/07/16 09:52:01;;;;;;;8.15;2.10;;;;;;;22.22;63.79;96773.34;2075337;28;20298;-62
2023/07/16 09:53:07;;;;;;;8.48;1.90;;;;;;;22.17;63.81;96779.06;2073443;28;20289;-62
2023/07/16 09:54:13;;;;;;;6.25;2.00;;;;;;;22.32;62.68;96779.50;2074890;28;20534;-63
2023/07/16 09:55:16;;;;;;;7.55;1.60;;;;;;;22.17;62.82;96780.88;2070524;28;20195;-62
2023/07/16 09:56:19;;;;;;;9.77;4.00;;;;;;;22.22;62.67;96785.78;2065755;28;20226;-62
2023/07/16 09:57:25;;;;;;;17.33;2.38;;;;;;;22.12;63.27;96788.44;2068300;28;20200;-62
2023/07/16 09:58:27;;;;;;;6.18;1.77;;;;;;;22.02;64.42;96785.75;2075610;28;20613;-62
2023/07/16 09:59:31;;;;;;;9.98;2.30;;;;;;;21.53;64.20;96785.56;2074435;28;20288;-62
2023/07/16 10:00:35;;;;;;;7.57;2.70;;;;;;;21.58;64.25;96771.91;2069600;28;20231;-62
2023/07/16 10:01:40;;;;;;;7.05;2.25;;;;;;;21.66;64.44;96786.22;2064247;28;20697;-63
2023/07/16 10:02:42;;;;;;;6.40;2.00;;;;;;;22.15;64.45;96778.34;2065791;28;20203;-62
2023/07/16 10:03:50;;;;;;;6.93;1.70;;;;;;;22.35;64.00;96783.69;2066071;28;20211;-62
2023/07/16 10:04:55;;;;;;;11.18;2.42;;;;;;;22.75;63.05;96780.06;2065895;28;20254;-62
2023/07/16 10:06:06;;;;;;;11.68;2.30;;;;;;;23.49;61.70;96777.69;2067987;28;20253;-63
2023/07/16 10:07:19;;;;;;;10.52;1.67;;;;;;;23.64;60.72;96778.03;2067987;28;20732;-62
2023/07/16 10:08:21;;;;;;;12.05;2.60;;;;;;;23.56;60.20;96788.59;2069121;28;20195;-63
2023/07/16 10:09:40;;;;;;;10.75;1.95;;;;;;;23.01;60.15;96790.13;2068055;28;20220;-62
2023/07/16 10:10:44;;;;;;;10.10;3.40;;;;;;;22.37;60.75;96795.06;2066672;28;20214;-62
2023/07/16 10:11:47;;;;;;;23.15;20.15;;;;;;;22.35;61.99;96787.19;2068360;28;20198;-62
2023/07/16 10:13:02;;;;;;;10.48;4.30;;;;;;;22.31;62.03;96787.63;2067313;28;20195;-62
2023/07/16 10:14:03;;;;;;;11.18;2.30;;;;;;;22.76;61.46;96784.41;2067963;28;20272;-62
2023/07/16 10:15:05;;;;;;;16.13;4.93;;;;;;;22.59;59.58;96785.97;2068987;28;20198;-62
2023/07/16 10:16:10;;;;;;;14.25;11.18;;;;;;;22.35;60.79;96789.00;2067588;28;20245;-62
2023/07/16 10:17:13;;;;;;;22.50;19.92;;;;;;;22.15;60.07;96783.66;2066888;28;20199;-62
2023/07/16 10:18:27;;;;;;;18.77;14.13;;;;;;;22.01;61.51;96789.38;2067606;28;20195;-62
2023/07/16 10:19:30;;;;;;;11.55;7.32;;;;;;;21.95;62.22;96785.47;2069055;28;20278;-62
2023/07/16 10:20:42;;;;;;;9.90;3.40;;;;;;;22.32;61.58;96776.84;2068049;28;20202;-62
2023/07/16 10:21:45;;;;;;;10.43;5.30;;;;;;;23.06;59.68;96785.22;2066310;28;20215;-62
2023/07/16 10:22:47;;;;;;;12.38;3.58;;;;;;;23.49;58.88;96785.69;2065693;28;20206;-62
2023/07/16 10:24:03;;;;;;;8.18;2.75;;;;;;;22.66;58.35;96773.78;2067578;28;20713;-62
2023/07/16 10:25:29;;;;;;;27.65;20.75;;;;;;;22.88;59.78;96782.47;2068433;28;20237;-62
2023/07/16 10:26:31;;;;;;;11.93;6.70;;;;;;;23.80;59.60;96772.06;2064431;28;20223;-63
2023/07/16 10:27:34;;;;;;;12.10;3.10;;;;;;;24.03;57.45;96761.03;2077190;28;20210;-64
2023/07/16 10:28:36;;;;;;;18.45;11.18;;;;;;;24.11;58.50;96772.63;2074667;28;20215;-62
2023/07/16 10:29:38;;;;;;;14.00;5.50;;;;;;;23.92;59.17;96768.25;2068485;28;21020;-62
2023/07/16 10:30:40;;;;;;;13.18;8.38;;;;;;;23.64;59.66;96772.72;2065496;28;20584;-62
2023/07/16 10:31:42;;;;;;;27.95;25.23;;;;;;;23.63;58.00;96771.06;2065517;28;20215;-62
2023/07/16 10:32:44;;;;;;;35.15;31.60;;;;;;;23.61;58.85;96768.50;2064545;28;20254;-62
2023/07/16 10:34:04;;;;;;;32.05;28.63;;;;;;;23.50;59.65;96770.53;2067861;28;20705;-62
2023/07/16 10:35:08;;;;;;;34.75;31.15;;;;;;;23.24;59.25;96763.22;2067797;28;20828;-62
2023/07/16 10:36:10;;;;;;;42.42;35.00;;;;;;;23.33;59.54;96767.66;2066608;28;20228;-62
2023/07/16 10:37:11;;;;;;;29.55;25.48;;;;;;;23.68;59.12;96768.78;2066092;28;20204;-62
2023/07/16 10:38:12;;;;;;;32.53;29.38;;;;;;;23.80;57.88;96764.09;2067305;28;20282;-62
2023/07/16 10:39:18;;;;;;;47.22;42.53;;;;;;;24.09;58.09;96771.94;2069995;28;20265;-62
2023/07/16 10:40:19;;;;;;;43.78;39.08;;;;;;;24.10;58.10;96770.94;2069348;28;20280;-63
2023/07/16 10:41:21;;;;;;;41.92;37.75;;;;;;;24.33;58.68;96767.84;2066701;28;20228;-62
2023/07/16 10:42:24;;;;;;;45.28;39.17;;;;;;;23.65;58.28;96769.06;2066066;28;20202;-62
2023/07/16 10:43:25;;;;;;;57.63;51.67;;;;;;;23.93;59.14;96769.94;2066787;28;20264;-62
2023/07/16 10:44:27;;;;;;;59.15;52.85;;;;;;;23.90;58.66;96764.03;2068971;28;20234;-62
2023/07/16 10:45:28;;;;;;;64.90;58.28;;;;;;;23.99;58.35;96765.00;2068045;28;20351;-63
2023/07/16 10:46:32;;;;;;;82.75;74.50;;;;;;;23.94;57.37;96760.09;2067023;28;20248;-63
2023/07/16 10:47:36;;;;;;;68.65;61.45;;;;;;;24.48;57.78;96757.50;2068571;28;20247;-62
2023/07/16 10:48:37;;;;;;;71.63;63.83;;;;;;;24.26;57.88;96759.63;2069082;28;20219;-62
2023/07/16 10:49:39;;;;;;;35.85;32.13;;;;;;;24.17;57.87;96757.00;2066837;28;20638;-62
2023/07/16 10:50:40;;;;;;;66.05;59.45;;;;;;;24.74;57.60;96762.88;2063878;28;20289;-62
2023/07/16 10:51:42;;;;;;;56.78;50.75;;;;;;;25.15;56.38;96759.66;2065861;28;20210;-62
2023/07/16 10:52:43;;;;;;;36.30;32.45;;;;;;;25.25;56.44;96763.09;2064649;28;20645;-62
2023/07/16 10:53:45;;;;;;;49.17;43.45;;;;;;;24.97;56.96;96749.03;2065065;28;20306;-63
2023/07/16 10:54:47;;;;;;;27.75;17.75;;;;;;;25.61;55.42;96761.28;2064437;28;20203;-63
2023/07/16 10:55:49;;;;;;;120.72;111.32;;;;;;;25.28;54.19;96764.63;2066281;28;20869;-63
2023/07/16 10:56:51;;;;;;;384.50;355.60;;;;;;;25.34;55.12;96763.97;2068692;28;20202;-63
2023/07/16 10:57:53;;;;;;;703.72;651.08;;;;;;;25.65;54.42;96763.50;2068648;28;20215;-63
2023/07/16 10:58:55;;;;;;;1115.55;999.90;;;;;;;25.07;54.40;96759.63;2067717;28;20214;-62
2023/07/16 10:59:58;;;;;;;1158.45;999.90;;;;;;;25.56;52.92;96757.25;2068128;28;20202;-63
2023/07/16 11:01:00;;;;;;;1210.65;999.90;;;;;;;23.91;56.32;96761.25;2066829;28;20222;-63
2023/07/16 11:02:02;;;;;;;1185.88;999.90;;;;;;;24.70;55.16;96758.88;2066700;28;20202;-63
2023/07/16 11:03:03;;;;;;;845.22;773.83;;;;;;;25.40;54.20;96754.50;2055695;28;20203;-63
2023/07/16 11:04:08;;;;;;;1004.50;916.67;;;;;;;25.42;54.17;96756.03;2056279;28;20254;-63
2023/07/16 11:05:14;;;;;;;1070.75;973.75;;;;;;;25.80;54.35;96755.69;2068576;28;20253;-63
2023/07/16 11:06:18;;;;;;;1184.43;999.90;;;;;;;26.54;52.88;96761.22;2066670;28;20260;-63
2023/07/16 11:07:21;;;;;;;1234.57;999.90;;;;;;;26.43;52.41;96750.03;2065695;28;20202;-63
2023/07/16 11:08:25;;;;;;;1237.70;999.90;;;;;;;26.27;52.95;96753.50;2068942;28;20232;-63
2023/07/16 11:09:27;;;;;;;1207.80;999.90;;;;;;;26.31;51.60;96744.13;2068263;28;20203;-63
2023/07/16 11:10:30;;;;;;;1083.95;991.58;;;;;;;26.23;50.49;96744.97;2067979;28;20203;-63
2023/07/16 11:11:31;;;;;;;1124.60;999.90;;;;;;;25.89;50.35;96746.69;2068076;28;20227;-62
2023/07/16 11:12:32;;;;;;;1074.38;982.47;;;;;;;25.15;51.43;96746.31;2068949;28;20203;-62
2023/07/16 11:13:34;;;;;;;1091.05;995.80;;;;;;;24.25;52.26;96751.75;2068271;28;20252;-62
2023/07/16 11:14:36;;;;;;;964.58;883.70;;;;;;;24.44;52.52;96751.63;2067555;28;20249;-62
2023/07/16 11:15:39;;;;;;;929.10;852.25;;;;;;;24.89;51.54;96752.50;2067539;28;20209;-62
2023/07/16 11:16:41;;;;;;;728.97;664.30;;;;;;;25.80;51.75;96742.34;2068369;28;20240;-62
2023/07/16 11:17:42;;;;;;;703.40;642.22;;;;;;;26.55;50.27;96740.63;2065945;28;20205;-63
2023/07/16 11:18:44;;;;;;;1096.10;993.83;;;;;;;26.35;49.98;96748.16;2065805;28;20726;-62
2023/07/16 11:19:50;;;;;;;1115.38;999.90;;;;;;;26.79;49.82;96750.56;2067810;28;20225;-62
2023/07/16 11:20:53;;;;;;;1132.05;999.90;;;;;;;26.91;49.63;96750.22;2066436;28;20199;-61
2023/07/16 11:21:54;;;;;;;1113.25;999.90;;;;;;;26.92;49.67;96746.50;2065250;28;20244;-61
2023/07/16 11:22:59;;;;;;;1206.45;999.90;;;;;;;26.48;48.96;96745.81;2065285;28;20211;-60
2023/07/16 11:24:12;;;;;;;1254.07;999.90;;;;;;;26.31;49.69;96757.50;2067818;28;20653;-61
2023/07/16 11:25:14;;;;;;;1480.75;999.90;;;;;;;25.26;51.42;96751.38;2069470;28;20203;-61
2023/07/16 11:26:15;;;;;;;1091.85;994.60;;;;;;;25.23;50.84;96754.38;2065496;28;20280;-61
2023/07/16 11:27:20;;;;;;;1272.90;999.90;;;;;;;24.81;50.18;96757.78;2068134;28;20288;-61
2023/07/16 11:28:21;;;;;;;1059.45;962.05;;;;;;;25.12;51.33;96756.50;2064256;28;20199;-61
2023/07/16 11:29:23;;;;;;;1156.82;999.90;;;;;;;24.73;50.15;96744.38;2065450;28;20202;-61
2023/07/16 11:30:25;;;;;;;1173.63;999.90;;;;;;;24.98;50.18;96750.72;2066705;28;20198;-62
2023/07/16 11:31:27;;;;;;;1085.80;983.30;;;;;;;25.41;50.64;96756.19;2063791;28;20241;-62
2023/07/16 11:32:43;;;;;;;960.17;875.83;;;;;;;25.27;51.50;96754.91;2064548;28;20294;-62
2023/07/16 11:33:45;;;;;;;1163.78;999.90;;;;;;;24.97;50.44;96758.91;2069073;28;20243;-61
2023/07/16 11:34:55;;;;;;;1047.65;955.47;;;;;;;25.18;49.95;96745.16;2063718;28;20280;-62
2023/07/16 11:35:56;;;;;;;966.22;881.72;;;;;;;25.33;50.47;96748.09;2063593;28;20205;-61
2023/07/16 11:37:09;;;;;;;970.47;885.45;;;;;;;25.49;51.03;96750.88;2067374;28;20195;-61
2023/07/16 11:38:10;;;;;;;1111.90;997.78;;;;;;;25.71;50.13;96751.31;2069365;28;20201;-61
2023/07/16 11:39:12;;;;;;;1009.53;915.65;;;;;;;25.36;50.65;96747.81;2068342;28;20242;-61
2023/07/16 11:40:18;;;;;;;1148.70;999.90;;;;;;;24.79;50.90;96749.09;2067617;28;20206;-61
2023/07/16 11:41:21;;;;;;;1024.45;933.22;;;;;;;24.80;51.34;96745.44;2070909;28;20294;-62
2023/07/16 11:42:34;;;;;;;1161.18;999.90;;;;;;;25.36;49.65;96743.31;2071364;28;20208;-61
2023/07/16 11:43:40;;;;;;;1128.60;999.90;;;;;;;25.31;49.45;96739.41;2074669;28;20198;-60
2023/07/16 11:44:42;;;;;;;1030.60;941.67;;;;;;;25.32;50.82;96743.72;2073158;28;20326;-61
2023/07/16 11:45:48;;;;;;;1266.35;999.90;;;;;;;24.73;50.61;96752.38;2067843;28;20245;-61
2023/07/16 11:46:50;;;;;;;1130.90;999.90;;;;;;;24.61;50.79;96744.56;2066706;28;20211;-61
2023/07/16 11:47:52;;;;;;;1048.82;953.42;;;;;;;24.85;50.98;96744.94;2068730;28;20712;-61
2023/07/16 11:48:53;;;;;;;1032.90;943.08;;;;;;;25.19;50.96;96744.16;2067525;28;20208;-60
2023/07/16 11:49:55;;;;;;;883.10;809.65;;;;;;;24.78;51.55;96740.25;2064197;28;20203;-60
2023/07/16 11:50:57;;;;;;;962.03;882.33;;;;;;;25.42;50.45;96731.16;2067170;28;20230;-60
2023/07/16 11:51:59;;;;;;;1056.18;962.55;;;;;;;25.42;50.10;96729.31;2068670;28;20738;-60
2023/07/16 11:53:04;;;;;;;1109.97;997.08;;;;;;;25.33;50.47;96730.25;2064186;28;20327;-61
2023/07/16 11:54:05;;;;;;;1141.25;999.90;;;;;;;25.95;49.43;96739.84;2065571;28;20225;-60
2023/07/16 11:55:08;;;;;;;1145.10;999.90;;;;;;;26.72;48.06;96736.97;2067624;28;20542;-60
2023/07/16 11:56:09;;;;;;;1181.18;999.90;;;;;;;27.07;47.77;96738.63;2066584;28;20222;-60
2023/07/16 11:57:11;;;;;;;1165.43;999.90;;;;;;;27.21;48.86;96721.84;2068887;28;20301;-61
2023/07/16 11:58:12;;;;;;;1215.45;999.90;;;;;;;27.56;47.02;96735.03;2067993;28;20241;-61
2023/07/16 11:59:16;;;;;;;1472.22;999.90;;;;;;;27.07;47.00;96739.50;2068421;28;20209;-61
2023/07/16 12:00:18;;;;;;;1123.40;994.60;;;;;;;26.67;46.86;96735.81;2068001;28;20225;-61
2023/07/16 12:01:20;;;;;;;1173.13;997.65;;;;;;;25.97;47.96;96734.34;2067346;28;20227;-61
2023/07/16 12:02:22;;;;;;;1185.63;999.90;;;;;;;26.24;48.97;96738.59;2068381;28;20206;-62
2023/07/16 12:03:23;;;;;;;1357.68;999.90;;;;;;;26.41;47.83;96734.13;2066571;28;20242;-62
2023/07/16 12:04:25;;;;;;;1197.15;999.90;;;;;;;26.23;48.51;96740.47;2068294;28;20252;-62
2023/07/16 12:05:28;;;;;;;1057.10;952.90;;;;;;;26.49;47.67;96725.25;2064263;28;20477;-62
2023/07/16 12:06:49;;;;;;;1167.15;999.90;;;;;;;26.68;48.24;96726.78;2065513;28;20261;-62
2023/07/16 12:07:51;;;;;;;1216.90;999.90;;;;;;;26.24;48.22;96728.75;2065439;28;20203;-62
2023/07/16 12:08:52;;;;;;;2250.00;999.90;;;;;;;25.30;49.07;96730.53;2067227;28;20685;-62
2023/07/16 12:09:53;;;;;;;1108.47;997.00;;;;;;;25.87;49.09;96729.13;2067924;28;20555;-61
2023/07/16 12:10:55;;;;;;;1170.80;999.90;;;;;;;26.19;48.01;96728.38;2063543;28;20264;-61
2023/07/16 12:11:56;;;;;;;1185.05;999.90;;;;;;;26.43;47.57;96725.94;2067635;28;20238;-62
2023/07/16 12:12:58;;;;;;;1178.40;999.90;;;;;;;27.33;47.49;96725.00;2067867;28;20642;-62
2023/07/16 12:13:59;;;;;;;1089.85;987.67;;;;;;;27.87;47.06;96718.94;2067941;28;20302;-62
2023/07/16 12:15:01;;;;;;;1196.00;833.08;;;;;;;27.66;45.58;96724.91;2066578;28;20285;-62
2023/07/16 12:16:02;;;;;;;2250.00;999.90;;;;;;;26.63;46.95;96723.75;2065936;28;20223;-62
2023/07/16 12:17:04;;;;;;;1432.93;751.47;;;;;;;26.73;47.15;96716.41;2066394;28;20202;-62
2023/07/16 12:18:06;;;;;;;1466.05;778.75;;;;;;;27.64;46.60;96721.56;2066480;28;20623;-62
2023/07/16 12:19:09;;;;;;;2250.00;999.90;;;;;;;28.21;45.31;96720.44;2069059;28;20206;-62
2023/07/16 12:20:11;;;;;;;2250.00;999.90;;;;;;;27.37;46.40;96715.59;2067178;28;20273;-62
2023/07/16 12:21:12;;;;;;;1163.03;999.90;;;;;;;26.99;48.10;96718.06;2066303;28;20237;-62
2023/07/16 12:22:17;;;;;;;1227.90;999.90;;;;;;;27.11;47.95;96716.69;2067669;28;20194;-61
2023/07/16 12:23:18;;;;;;;1081.63;969.92;;;;;;;27.07;47.95;96711.84;2068124;28;20201;-62
2023/07/16 12:24:19;;;;;;;1048.40;935.65;;;;;;;26.98;47.89;96711.00;2068181;28;20199;-62
2023/07/16 12:25:21;;;;;;;2250.00;999.90;;;;;;;26.35;47.79;96708.03;2067582;28;20203;-61
2023/07/16 12:26:23;;;;;;;1176.80;999.78;;;;;;;25.99;48.56;96709.13;2067072;28;20268;-61
2023/07/16 12:27:24;;;;;;;1053.95;950.42;;;;;;;25.80;49.86;96714.72;2069216;28;20202;-61